Terminal Aerodrome Forecast
Issued by NWS

Home | Current Version | Previous Version | Text Only | Print | Product List | Glossary On
Versions: 1 2 3 4 5 6 7 8 9 10 11 12 13 14 15 16 17 18 19 20 21 22 23 24 25 26
383
FTUS43 KDMX 240520
TAFMCW
TAF
KMCW 240520Z 2406/2506 VRB03KT P6SM FEW250
     FM241600 35007KT P6SM FEW250
     FM242000 36011G17KT P6SM BKN100=

USA.gov is the U.S. government's official web portal to all federal, state and local government web resources and services.